Time;durP1;ratioP1;P1;durP2;ratioP2;P2;SDS_P1;SDS_P2;PMS_P1;PMS_P2;Temp;Humidity;BMP_temperature;BMP_pressure;BME280_temperature;BME280_humidity;BME280_pressure;Samples;Min_cycle;Max_cycle;Signal;HPM_P1;HPM_P2
2022/03/02 00:01:36;;;;;;;21.48;13.93;;;;;;;0.93;55.12;95690.28;5049384;28;20067;-57
2022/03/02 00:04:01;;;;;;;19.08;11.75;;;;;;;0.87;54.52;95681.91;5049372;28;20463;-59
2022/03/02 00:06:27;;;;;;;18.95;12.80;;;;;;;0.71;55.46;95685.53;5049416;28;20032;-56
2022/03/02 00:08:53;;;;;;;20.50;12.00;;;;;;;0.57;55.21;95644.25;5049218;28;20025;-56
2022/03/02 00:11:18;;;;;;;17.13;11.82;;;;;;;0.80;55.08;95682.00;5048724;28;20079;-56
2022/03/02 00:13:44;;;;;;;16.25;11.75;;;;;;;0.76;54.10;95667.69;5048813;28;20099;-57
2022/03/02 00:16:12;;;;;;;19.15;11.10;;;;;;;0.54;55.15;95663.75;5048637;28;20488;-58
2022/03/02 00:18:38;;;;;;;18.52;12.23;;;;;;;0.57;55.18;95673.00;5048394;28;20021;-55
2022/03/02 00:21:04;;;;;;;15.88;11.93;;;;;;;0.45;55.86;95668.94;5048696;28;20397;-57
2022/03/02 00:23:29;;;;;;;18.27;12.13;;;;;;;0.41;56.46;95664.78;5048333;28;20036;-57
2022/03/02 00:25:55;;;;;;;20.02;12.48;;;;;;;0.30;57.26;95669.97;5048790;28;20025;-57
2022/03/02 00:28:21;;;;;;;17.42;9.88;;;;;;;0.25;56.34;95661.56;5048500;28;20021;-54
2022/03/02 00:30:47;;;;;;;18.67;11.30;;;;;;;-0.13;57.36;95603.69;5048449;28;20056;-56
2022/03/02 00:33:12;;;;;;;17.42;10.73;;;;;;;-0.43;57.85;95572.78;5048395;28;20032;-56
2022/03/02 00:35:38;;;;;;;17.35;12.52;;;;;;;-0.01;57.62;95655.09;5048293;28;20025;-55
2022/03/02 00:38:06;;;;;;;17.70;11.52;;;;;;;-0.14;57.96;95635.00;5048819;28;20500;-58
2022/03/02 00:40:32;;;;;;;17.77;12.05;;;;;;;-0.04;58.42;95654.31;5048249;28;20032;-52
2022/03/02 00:42:59;;;;;;;19.35;12.75;;;;;;;-0.32;57.88;95613.22;5048146;28;20511;-53
2022/03/02 00:45:25;;;;;;;21.13;14.25;;;;;;;-0.23;57.98;95644.38;5048485;28;20171;-56
2022/03/02 00:47:51;;;;;;;19.48;13.48;;;;;;;-0.32;58.65;95638.56;5047868;28;20108;-57
2022/03/02 00:50:17;;;;;;;19.38;13.68;;;;;;;-0.43;58.96;95623.47;5048294;28;20029;-56
2022/03/02 00:52:42;;;;;;;21.48;13.80;;;;;;;-0.38;59.05;95630.19;5048262;28;20499;-56
2022/03/02 00:55:08;;;;;;;18.88;14.05;;;;;;;-0.58;59.30;95606.72;5047830;28;20029;-56
2022/03/02 00:57:34;;;;;;;23.30;14.32;;;;;;;-0.52;59.69;95623.59;5047964;28;20028;-55
2022/03/02 00:59:59;;;;;;;19.38;14.38;;;;;;;-0.56;60.16;95622.75;5047473;28;20108;-55
2022/03/02 01:02:25;;;;;;;22.10;13.88;;;;;;;-0.62;60.46;95618.59;5048045;28;20021;-58
2022/03/02 01:04:50;;;;;;;20.10;12.70;;;;;;;-0.84;60.56;95596.84;5047973;28;20086;-56
2022/03/02 01:07:16;;;;;;;21.05;14.20;;;;;;;-0.73;60.76;95612.78;5048011;28;20051;-57
2022/03/02 01:09:41;;;;;;;17.88;11.23;;;;;;;-0.86;59.25;95590.97;5047824;28;20033;-56
2022/03/02 01:12:07;;;;;;;20.35;12.25;;;;;;;-0.93;59.49;95580.06;5047590;28;20060;-57
2022/03/02 01:14:32;;;;;;;20.17;13.77;;;;;;;-0.84;60.57;95612.03;5047359;28;20057;-58
2022/03/02 01:16:58;;;;;;;19.40;11.57;;;;;;;-0.82;60.73;95607.78;5048011;28;20477;-61
2022/03/02 01:19:23;;;;;;;19.27;13.60;;;;;;;-0.87;60.69;95612.94;5047814;28;20345;-57
2022/03/02 01:21:49;;;;;;;20.98;14.70;;;;;;;-0.96;61.77;95583.44;5047926;28;20108;-57
2022/03/02 01:24:15;;;;;;;22.98;16.77;;;;;;;-0.88;62.11;95608.72;5047378;28;20064;-56
2022/03/02 01:26:40;;;;;;;19.83;13.27;;;;;;;-0.97;61.90;95591.06;5047974;28;20053;-59
2022/03/02 01:29:06;;;;;;;20.70;14.48;;;;;;;-1.29;62.17;95539.03;5047993;28;20036;-58
2022/03/02 01:31:31;;;;;;;21.38;14.90;;;;;;;-0.99;61.10;95603.72;5050600;28;20123;-61
2022/03/02 01:33:57;;;;;;;18.73;12.23;;;;;;;-1.12;60.90;95587.78;5051584;28;20025;-59
2022/03/02 01:36:23;;;;;;;21.52;13.13;;;;;;;-1.27;61.21;95566.84;5051732;28;20408;-56
2022/03/02 01:38:49;;;;;;;17.92;12.05;;;;;;;-1.07;60.73;95599.59;5051955;28;20108;-59
2022/03/02 01:41:17;;;;;;;20.05;13.75;;;;;;;-1.08;61.16;95595.38;5051757;28;20441;-58
2022/03/02 01:43:43;;;;;;;18.65;11.95;;;;;;;-1.36;60.57;95543.31;5051421;28;20032;-56
2022/03/02 01:46:10;;;;;;;20.77;11.85;;;;;;;-1.11;60.39;95592.00;5051146;28;20040;-56
2022/03/02 01:48:35;;;;;;;17.70;10.68;;;;;;;-1.46;60.16;95543.38;5051632;28;20028;-59
2022/03/02 01:51:01;;;;;;;17.25;11.32;;;;;;;-1.13;59.80;95592.91;5051583;28;20036;-61
2022/03/02 01:53:27;;;;;;;18.65;11.20;;;;;;;-1.23;60.05;95584.53;5051989;28;20037;-58
2022/03/02 01:55:55;;;;;;;18.27;11.05;;;;;;;-1.22;60.32;95586.19;5051417;28;20038;-56
2022/03/02 01:58:22;;;;;;;12.60;9.88;;;;;;;-1.34;60.84;95564.38;5051167;28;20107;-54
2022/03/02 02:00:48;;;;;;;15.63;10.30;;;;;;;-1.30;60.70;95583.75;5051248;28;20021;-53
2022/03/02 02:03:13;;;;;;;16.58;11.18;;;;;;;-1.34;60.79;95587.13;5051395;28;20021;-53
2022/03/02 02:05:39;;;;;;;15.82;10.93;;;;;;;-1.43;60.62;95574.53;5051056;28;20436;-57
2022/03/02 02:08:04;;;;;;;15.73;10.90;;;;;;;-1.45;60.62;95568.66;5051564;28;20033;-55
2022/03/02 02:10:30;;;;;;;18.40;12.00;;;;;;;-1.45;60.51;95573.72;5050891;28;20506;-56
2022/03/02 02:12:55;;;;;;;15.02;10.00;;;;;;;-1.41;60.72;95577.94;5050983;28;20029;-58
2022/03/02 02:15:21;;;;;;;16.13;11.60;;;;;;;-1.45;60.85;95565.31;5050818;28;20106;-55
2022/03/02 02:17:47;;;;;;;17.17;10.75;;;;;;;-1.50;60.95;95560.28;5051109;28;20025;-56
2022/03/02 02:20:13;;;;;;;15.98;9.68;;;;;;;-1.54;61.51;95556.94;5050953;28;20051;-58
2022/03/02 02:22:41;;;;;;;15.18;10.10;;;;;;;-1.70;61.21;95537.66;5050393;28;20049;-58
2022/03/02 02:25:07;;;;;;;17.45;10.82;;;;;;;-1.67;61.43;95558.72;5051242;28;20336;-60
2022/03/02 02:27:33;;;;;;;16.27;10.57;;;;;;;-1.52;61.31;95559.47;5050981;28;20087;-61
2022/03/02 02:30:00;;;;;;;14.80;9.57;;;;;;;-1.52;60.01;95549.34;5050896;28;20543;-55
2022/03/02 02:32:26;;;;;;;15.52;10.55;;;;;;;-1.43;61.02;95564.44;5050866;28;20031;-60
2022/03/02 02:34:51;;;;;;;14.63;10.15;;;;;;;-1.65;60.64;95528.34;5050084;28;20135;-58
2022/03/02 02:37:17;;;;;;;17.58;11.25;;;;;;;-1.45;60.78;95565.31;5050724;28;20025;-58
2022/03/02 02:39:42;;;;;;;19.30;11.38;;;;;;;-1.83;60.91;95510.78;5050445;28;20028;-55
2022/03/02 02:42:09;;;;;;;16.67;11.68;;;;;;;-1.50;61.42;95556.03;5050097;28;20033;-57
2022/03/02 02:44:35;;;;;;;19.75;12.00;;;;;;;-1.44;61.46;95561.91;5050256;28;20040;-58
2022/03/02 02:47:01;;;;;;;18.30;12.18;;;;;;;-1.52;61.66;95556.94;5050056;28;20052;-56
2022/03/02 02:49:27;;;;;;;15.13;10.77;;;;;;;-1.97;61.81;95491.47;5050405;28;20465;-58
2022/03/02 02:51:57;;;;;;;17.17;11.85;;;;;;;-1.73;61.53;95533.44;5050138;28;20036;-55
2022/03/02 02:54:22;;;;;;;16.27;10.55;;;;;;;-1.58;61.64;95564.56;5050253;28;20043;-52
2022/03/02 02:56:48;;;;;;;15.50;10.82;;;;;;;-1.59;61.62;95560.34;5050098;28;20442;-55
2022/03/02 02:59:13;;;;;;;20.00;11.23;;;;;;;-1.58;61.54;95562.03;5050004;28;20033;-54
2022/03/02 03:01:39;;;;;;;19.90;9.95;;;;;;;-1.56;60.33;95572.97;5050161;28;20040;-56
2022/03/02 03:04:06;;;;;;;16.80;11.70;;;;;;;-1.83;61.26;95529.31;5050113;28;20071;-65
2022/03/02 03:06:32;;;;;;;16.27;12.07;;;;;;;-1.70;61.22;95547.78;5048781;28;20041;-55
2022/03/02 03:08:57;;;;;;;14.55;10.32;;;;;;;-1.80;61.26;95530.97;5048588;28;20091;-54
2022/03/02 03:11:23;;;;;;;14.80;10.38;;;;;;;-1.79;60.72;95532.66;5049908;28;20417;-55
2022/03/02 03:13:48;;;;;;;19.80;11.57;;;;;;;-1.63;60.80;95562.03;5048245;28;20504;-53
2022/03/02 03:16:14;;;;;;;15.35;10.60;;;;;;;-1.82;61.04;95538.59;5050128;28;20476;-57
2022/03/02 03:18:39;;;;;;;13.25;9.68;;;;;;;-1.66;61.12;95564.59;5049820;28;20516;-53
2022/03/02 03:21:04;;;;;;;13.43;9.73;;;;;;;-1.73;61.32;95560.44;5049835;28;20033;-53
2022/03/02 03:23:30;;;;;;;15.70;10.40;;;;;;;-2.20;61.26;95489.09;5049355;28;20029;-59
2022/03/02 03:25:55;;;;;;;14.65;9.95;;;;;;;-1.67;60.71;95568.81;5049668;28;20052;-54
2022/03/02 03:28:21;;;;;;;15.52;9.88;;;;;;;-1.73;61.83;95565.50;5049744;28;20111;-58
2022/03/02 03:30:46;;;;;;;15.82;10.20;;;;;;;-1.80;61.92;95544.47;5049793;28;20032;-55
2022/03/02 03:33:12;;;;;;;12.80;7.55;;;;;;;-1.68;62.05;95556.19;5049683;28;20029;-56
2022/03/02 03:35:37;;;;;;;16.85;10.18;;;;;;;-2.19;61.88;95469.75;5049169;28;20029;-59
2022/03/02 03:38:04;;;;;;;15.80;10.27;;;;;;;-1.75;61.92;95542.75;5049608;28;20033;-57
2022/03/02 03:40:29;;;;;;;16.35;10.32;;;;;;;-1.74;62.24;95539.38;5049684;28;20025;-57
2022/03/02 03:42:56;;;;;;;12.13;9.18;;;;;;;-1.46;62.07;95554.31;5049217;28;20524;-56
2022/03/02 03:45:21;;;;;;;13.00;8.25;;;;;;;-1.85;62.24;95485.53;5049452;28;20040;-56
2022/03/02 03:47:47;;;;;;;12.32;8.15;;;;;;;-1.41;62.10;95555.16;5048859;28;20021;-56
2022/03/02 03:50:14;;;;;;;13.35;8.75;;;;;;;-1.49;62.06;95540.03;5049459;28;20029;-56
2022/03/02 03:52:40;;;;;;;11.43;8.65;;;;;;;-1.49;62.97;95534.97;5049348;28;20403;-57
2022/03/02 03:55:07;;;;;;;13.18;9.20;;;;;;;-1.77;62.63;95504.00;5048290;28;20029;-59
2022/03/02 03:57:33;;;;;;;11.88;9.27;;;;;;;-1.32;62.70;95550.00;5049370;28;20480;-61
2022/03/02 03:59:58;;;;;;;12.57;9.38;;;;;;;-1.42;62.52;95524.81;5048534;28;20028;-56
2022/03/02 04:02:24;;;;;;;13.02;9.10;;;;;;;-1.34;62.88;95546.66;5049261;28;20017;-58
2022/03/02 04:04:49;;;;;;;10.90;8.30;;;;;;;-1.31;62.80;95538.22;5049630;28;20484;-56
2022/03/02 04:07:15;;;;;;;14.15;8.55;;;;;;;-1.28;62.19;95530.56;5049384;28;20047;-54
2022/03/02 04:09:40;;;;;;;13.27;9.80;;;;;;;-1.15;63.00;95542.28;5048812;28;20053;-56
2022/03/02 04:12:06;;;;;;;13.93;8.38;;;;;;;-1.32;63.29;95516.28;5048725;28;20025;-55
2022/03/02 04:14:31;;;;;;;14.80;8.68;;;;;;;-1.18;62.50;95542.31;5048597;28;20057;-55
2022/03/02 04:16:57;;;;;;;14.15;9.63;;;;;;;-1.15;62.57;95546.50;5049045;28;20025;-55
2022/03/02 04:19:23;;;;;;;11.30;8.60;;;;;;;-1.21;62.57;95528.84;5048973;28;20082;-54
2022/03/02 04:21:48;;;;;;;13.40;8.68;;;;;;;-1.11;62.61;95540.56;5048848;28;20071;-54
2022/03/02 04:24:14;;;;;;;14.00;9.18;;;;;;;-1.23;62.84;95507.75;5048232;28;20029;-56
2022/03/02 04:26:39;;;;;;;14.75;8.63;;;;;;;-1.04;62.84;95536.28;5048689;28;20472;-54
2022/03/02 04:29:05;;;;;;;13.75;9.38;;;;;;;-1.14;63.02;95510.22;5048786;28;20428;-56
2022/03/02 04:31:30;;;;;;;12.50;8.48;;;;;;;-1.10;62.38;95519.44;5049149;28;20020;-58
2022/03/02 04:33:55;;;;;;;8.52;6.20;;;;;;;-1.48;62.69;95475.94;5048707;28;20046;-56
2022/03/02 04:36:21;;;;;;;14.10;8.30;;;;;;;-1.28;62.56;95486.72;5048414;28;20752;-55
2022/03/02 04:38:46;;;;;;;13.60;7.82;;;;;;;-1.01;63.06;95534.56;5048541;28;20029;-57
2022/03/02 04:41:12;;;;;;;12.77;7.95;;;;;;;-1.20;63.43;95512.78;5048353;28;20028;-56
2022/03/02 04:43:38;;;;;;;11.15;6.80;;;;;;;-1.13;63.63;95532.97;5048559;28;20047;-54
2022/03/02 04:46:03;;;;;;;16.15;9.02;;;;;;;-1.06;64.37;95533.75;5048184;28;20029;-57
2022/03/02 04:48:29;;;;;;;10.05;6.78;;;;;;;-1.94;64.58;95427.44;5048387;28;20029;-56
2022/03/02 04:50:55;;;;;;;12.73;7.55;;;;;;;-1.26;64.16;95500.19;5048562;28;20025;-55
2022/03/02 04:53:23;;;;;;;13.63;9.68;;;;;;;-1.12;64.33;95514.41;5048386;28;20432;-58
2022/03/02 04:55:49;;;;;;;15.52;9.38;;;;;;;-1.01;64.52;95523.59;5046951;28;20037;-55
2022/03/02 04:58:15;;;;;;;16.52;10.27;;;;;;;-0.97;64.43;95521.03;5047896;28;20035;-57
2022/03/02 05:00:40;;;;;;;19.02;10.45;;;;;;;-1.06;64.29;95500.84;5048334;28;20056;-58
2022/03/02 05:03:06;;;;;;;16.02;10.70;;;;;;;-0.94;65.24;95522.66;5048266;28;20119;-58
2022/03/02 05:05:35;;;;;;;20.17;12.30;;;;;;;-0.96;65.30;95527.75;5047803;28;20028;-55
2022/03/02 05:08:01;;;;;;;18.35;12.20;;;;;;;-0.90;64.85;95528.53;5048219;28;20033;-58
2022/03/02 05:10:27;;;;;;;15.60;10.98;;;;;;;-1.00;65.01;95502.47;5047682;28;20025;-57
2022/03/02 05:12:53;;;;;;;16.77;11.73;;;;;;;-0.82;65.27;95521.69;5047955;28;20086;-57
2022/03/02 05:15:19;;;;;;;13.27;9.45;;;;;;;-0.82;64.99;95520.03;5047887;28;20607;-59
2022/03/02 05:17:47;;;;;;;13.48;8.13;;;;;;;-1.00;65.28;95505.88;5047003;28;20056;-57
2022/03/02 05:20:14;;;;;;;18.45;11.60;;;;;;;-0.80;65.08;95525.06;5042723;28;20047;-59
2022/03/02 05:22:40;;;;;;;13.48;8.75;;;;;;;-0.77;64.58;95530.09;5029874;28;20033;-57
2022/03/02 05:25:08;;;;;;;19.60;12.38;;;;;;;-0.76;65.10;95524.19;5031948;28;20039;-55
2022/03/02 05:27:34;;;;;;;18.55;12.35;;;;;;;-0.72;65.57;95523.31;5029829;28;20556;-60
2022/03/02 05:30:00;;;;;;;19.48;12.50;;;;;;;-0.62;65.32;95518.97;5027291;28;20026;-57
2022/03/02 05:32:27;;;;;;;21.13;12.10;;;;;;;-0.49;64.82;95524.72;5028475;28;20460;-57
2022/03/02 05:34:53;;;;;;;21.65;13.02;;;;;;;-0.64;65.42;95511.38;5027627;28;20036;-56
2022/03/02 05:37:19;;;;;;;15.65;10.07;;;;;;;-0.58;66.25;95535.78;5028137;28;20053;-57
2022/03/02 05:39:44;;;;;;;18.70;12.75;;;;;;;-0.53;65.54;95523.09;5027997;28;20076;-61
2022/03/02 05:42:10;;;;;;;16.73;10.65;;;;;;;-0.58;65.52;95505.41;5027859;28;20085;-61
2022/03/02 05:44:35;;;;;;;15.95;10.13;;;;;;;-0.52;66.30;95517.19;5027915;28;20037;-59
2022/03/02 05:47:01;;;;;;;24.20;12.82;;;;;;;-0.35;66.07;95524.56;5027274;28;20068;-59
2022/03/02 05:49:26;;;;;;;17.00;12.05;;;;;;;-0.24;66.15;95525.28;5028171;28;20112;-57
2022/03/02 05:51:52;;;;;;;15.50;12.00;;;;;;;-0.42;65.75;95501.81;5027809;28;20114;-54
2022/03/02 05:54:18;;;;;;;15.02;10.10;;;;;;;-0.38;65.92;95518.69;5036330;28;20033;-56
2022/03/02 05:56:43;;;;;;;16.58;12.30;;;;;;;-0.56;65.96;95483.41;5036665;28;20477;-57
2022/03/02 05:59:11;;;;;;;17.55;11.23;;;;;;;-0.24;66.60;95521.03;5036344;28;20078;-56
2022/03/02 06:01:38;;;;;;;18.67;10.73;;;;;;;-0.30;66.49;95527.88;5032578;28;20029;-57
2022/03/02 06:04:05;;;;;;;16.63;11.55;;;;;;;-0.31;66.54;95528.72;5024425;28;20034;-59
2022/03/02 06:06:35;;;;;;;18.42;11.40;;;;;;;-0.23;66.78;95527.78;5024431;28;20213;-54
2022/03/02 06:09:04;;;;;;;15.13;11.00;;;;;;;-0.27;66.62;95531.19;5023709;28;20492;-55
2022/03/02 06:11:30;;;;;;;18.85;11.25;;;;;;;-0.38;67.02;95515.28;5028241;28;20082;-58
2022/03/02 06:13:56;;;;;;;20.40;11.23;;;;;;;-0.21;66.74;95538.75;5035746;28;20053;-57
2022/03/02 06:16:22;;;;;;;17.83;12.07;;;;;;;-0.96;66.61;95416.34;5040407;28;20037;-56
2022/03/02 06:18:47;;;;;;;15.50;9.07;;;;;;;-0.21;67.22;95542.97;5027715;28;20029;-57
2022/03/02 06:21:28;;;;;;;20.35;12.73;;;;;;;-0.43;66.65;95481.56;5028325;28;20033;-61
2022/03/02 06:23:54;;;;;;;19.83;13.10;;;;;;;-0.19;66.34;95495.63;5027173;28;20057;-57
2022/03/02 06:26:22;;;;;;;18.83;12.35;;;;;;;0.16;66.23;95530.66;5027585;28;20787;-60
2022/03/02 06:28:48;;;;;;;14.05;9.38;;;;;;;0.13;65.88;95524.75;5039740;28;20067;-58
2022/03/02 06:31:13;;;;;;;16.80;13.00;;;;;;;0.11;65.24;95509.56;5047998;28;20663;-59
2022/03/02 06:33:39;;;;;;;17.65;11.27;;;;;;;-0.15;65.12;95464.28;5031223;28;20413;-58
2022/03/02 06:36:05;;;;;;;15.05;11.18;;;;;;;0.14;65.57;95527.28;5027574;28;20837;-59
2022/03/02 06:38:30;;;;;;;14.20;9.32;;;;;;;0.06;65.86;95513.88;5029977;28;20610;-58
2022/03/02 06:41:24;;;;;;;20.77;12.65;;;;;;;0.04;65.70;95515.59;5027795;28;20033;-58
2022/03/02 06:44:28;;;;;;;17.67;11.75;;;;;;;0.22;65.63;95518.75;5033749;28;20072;-57
2022/03/02 06:47:02;;;;;;;19.13;11.43;;;;;;;0.05;65.79;95516.41;5026922;28;20033;-64
2022/03/02 06:49:52;;;;;;;20.48;14.40;;;;;;;0.26;65.55;95517.81;5026947;28;20037;-57
2022/03/02 06:52:19;;;;;;;21.33;15.02;;;;;;;0.45;65.01;95520.94;5026961;28;20180;-62
2022/03/02 06:54:47;;;;;;;20.63;13.60;;;;;;;0.49;64.56;95518.31;5026860;28;20124;-59
2022/03/02 06:57:18;;;;;;;20.35;13.73;;;;;;;0.33;64.05;95477.13;5027233;28;20034;-59
2022/03/02 06:59:50;;;;;;;22.65;16.63;;;;;;;0.62;63.98;95513.03;5035517;28;20059;-59
2022/03/02 07:02:20;;;;;;;;;;;;;;;0.73;63.86;95512.00;5027705;28;20053;-62
2022/03/02 07:04:46;;;;;;;21.35;15.27;;;;;;;0.42;63.57;95448.22;5029735;28;20008;-60
2022/03/02 07:07:12;;;;;;;19.15;10.75;;;;;;;0.62;63.33;95478.34;5027398;28;20086;-64
2022/03/02 07:09:38;;;;;;;19.98;12.95;;;;;;;1.01;63.07;95506.44;5027074;28;20476;-57
2022/03/02 07:12:05;;;;;;;17.48;13.15;;;;;;;1.16;62.49;95497.69;5026175;28;20107;-59
2022/03/02 07:14:33;;;;;;;23.05;14.50;;;;;;;1.31;61.77;95500.81;5027990;28;20041;-58
2022/03/02 07:17:01;;;;;;;20.40;15.13;;;;;;;1.24;61.76;95500.09;5027024;28;20124;-60
2022/03/02 07:19:27;;;;;;;21.02;14.10;;;;;;;0.85;61.73;95434.81;5029532;28;20029;-58
2022/03/02 07:21:54;;;;;;;21.27;14.45;;;;;;;1.23;61.58;95480.63;5027378;28;20021;-60
2022/03/02 07:24:22;;;;;;;21.45;14.13;;;;;;;1.27;61.51;95493.25;5026775;28;20025;-57
2022/03/02 07:26:57;;;;;;;22.15;14.93;;;;;;;1.28;61.53;95497.47;5029375;28;20078;-62
2022/03/02 07:29:26;;;;;;;22.67;14.45;;;;;;;1.29;60.40;95490.69;5026447;28;20919;-62
2022/03/02 07:31:53;;;;;;;21.52;14.00;;;;;;;1.23;61.04;95500.97;5037138;28;20872;-58
2022/03/02 07:34:19;;;;;;;22.70;14.70;;;;;;;1.16;61.45;95489.25;5045824;28;20025;-69
2022/03/02 07:36:45;;;;;;;21.10;15.70;;;;;;;1.31;61.10;95483.03;5029414;28;20059;-65
2022/03/02 07:39:11;;;;;;;22.98;14.15;;;;;;;1.37;60.44;95483.75;5026753;28;20041;-59
2022/03/02 07:41:37;;;;;;;23.45;14.98;;;;;;;1.34;60.59;95471.09;5027887;28;20466;-58
2022/03/02 07:44:04;;;;;;;19.15;14.05;;;;;;;1.46;60.51;95482.75;5033900;28;20053;-58
2022/03/02 07:46:30;;;;;;;21.33;14.63;;;;;;;1.48;60.34;95478.47;5041597;28;20051;-59
2022/03/02 07:48:56;;;;;;;22.95;14.85;;;;;;;1.37;61.35;95477.84;5046126;28;20507;-60
2022/03/02 07:51:23;;;;;;;22.67;14.15;;;;;;;1.23;60.69;95423.06;5038076;28;20043;-60
2022/03/02 07:53:51;;;;;;;20.70;14.57;;;;;;;1.64;60.82;95472.22;5026588;28;20025;-60
2022/03/02 07:56:19;;;;;;;20.55;14.98;;;;;;;1.58;60.42;95449.44;5028386;28;20048;-60
2022/03/02 07:58:45;;;;;;;23.10;15.48;;;;;;;1.78;60.62;95478.69;5025630;28;20580;-65
2022/03/02 08:01:17;;;;;;;22.08;15.00;;;;;;;1.42;60.14;95409.97;5026697;28;20048;-60
2022/03/02 08:03:44;;;;;;;27.38;15.43;;;;;;;1.89;60.45;95478.50;5028401;28;20028;-60
2022/03/02 08:06:11;;;;;;;25.45;17.30;;;;;;;2.01;60.21;95468.84;5025764;28;20056;-63
2022/03/02 08:08:37;;;;;;;22.55;15.63;;;;;;;1.94;60.27;95443.59;5028238;28;20107;-59
2022/03/02 08:11:04;;;;;;;23.70;16.33;;;;;;;2.09;60.09;95453.44;5025829;28;20025;-60
2022/03/02 08:13:31;;;;;;;27.52;17.15;;;;;;;2.43;58.86;95461.97;5028341;28;20051;-58
2022/03/02 08:15:57;;;;;;;21.15;14.68;;;;;;;2.49;57.47;95444.00;5043726;28;20753;-59
2022/03/02 08:18:23;;;;;;;21.13;14.60;;;;;;;2.31;58.31;95432.56;5048914;28;20017;-59
2022/03/02 08:20:50;;;;;;;22.85;15.75;;;;;;;2.44;57.98;95461.94;5034391;28;20373;-64
2022/03/02 08:23:19;;;;;;;24.20;14.30;;;;;;;2.18;59.12;95465.94;5028187;28;20746;-59
2022/03/02 08:25:46;;;;;;;26.52;16.52;;;;;;;1.93;59.02;95430.03;5028319;28;20033;-56
2022/03/02 08:28:14;;;;;;;29.60;15.90;;;;;;;1.94;59.43;95449.53;5029101;28;20389;-62
2022/03/02 08:30:42;;;;;;;21.73;12.85;;;;;;;1.92;59.85;95458.03;5029023;28;20056;-61
2022/03/02 08:33:08;;;;;;;20.80;13.02;;;;;;;1.49;60.13;95408.13;5028764;28;20029;-59
2022/03/02 08:35:38;;;;;;;24.48;13.57;;;;;;;1.45;60.65;95430.25;5027870;28;20229;-63
2022/03/02 08:38:04;;;;;;;26.30;15.35;;;;;;;1.47;60.49;95382.75;5028626;28;20025;-56
2022/03/02 08:40:30;;;;;;;24.55;16.00;;;;;;;2.11;59.38;95445.75;5028215;28;20083;-58
2022/03/02 08:42:57;;;;;;;31.73;17.00;;;;;;;2.34;58.79;95440.97;5028459;28;20026;-60
2022/03/02 08:45:23;;;;;;;22.35;14.32;;;;;;;2.22;59.10;95437.88;5028544;28;20093;-59
2022/03/02 08:47:48;;;;;;;18.45;12.35;;;;;;;2.06;58.76;95439.94;5028270;28;20087;-65
2022/03/02 08:50:14;;;;;;;25.20;16.73;;;;;;;2.11;58.46;95390.63;5028440;28;20029;-62
2022/03/02 08:52:40;;;;;;;20.52;14.23;;;;;;;2.20;56.76;95369.22;5028385;28;20447;-59
2022/03/02 08:55:11;;;;;;;27.42;15.57;;;;;;;3.20;56.20;95427.75;5028073;28;20029;-61
2022/03/02 08:57:43;;;;;;;23.33;15.23;;;;;;;3.41;54.58;95423.75;5026830;28;20099;-60
2022/03/02 09:00:11;;;;;;;25.65;16.42;;;;;;;3.93;53.32;95415.44;5027965;28;20029;-61
2022/03/02 09:02:39;;;;;;;23.15;15.40;;;;;;;3.71;53.22;95418.66;5028452;28;20409;-60
2022/03/02 09:05:06;;;;;;;22.10;16.23;;;;;;;3.31;53.45;95359.47;5028564;28;20117;-59
2022/03/02 09:07:32;;;;;;;27.48;17.35;;;;;;;3.48;52.72;95324.97;5028586;28;20028;-62
2022/03/02 09:09:59;;;;;;;27.23;17.77;;;;;;;4.22;51.35;95320.09;5028129;28;20025;-61
2022/03/02 09:12:25;;;;;;;33.38;19.70;;;;;;;5.03;49.77;95392.25;5027971;28;20034;-59
2022/03/02 09:14:51;;;;;;;28.55;16.80;;;;;;;6.79;45.54;95379.53;5027785;28;20049;-63
2022/03/02 09:17:19;;;;;;;25.80;14.95;;;;;;;9.48;38.86;95372.81;5028202;28;20034;-61
2022/03/02 09:19:45;;;;;;;23.88;16.60;;;;;;;8.72;39.58;95377.59;5028364;28;20030;-60
2022/03/02 09:22:11;;;;;;;24.23;17.52;;;;;;;8.23;40.57;95385.91;5027769;28;20041;-62
2022/03/02 09:24:38;;;;;;;23.13;16.83;;;;;;;7.88;41.34;95360.19;5027920;28;20029;-60
2022/03/02 09:27:09;;;;;;;22.55;14.65;;;;;;;10.81;34.72;95347.47;5028228;28;20117;-59
2022/03/02 09:29:38;;;;;;;19.38;12.13;;;;;;;7.97;38.55;95367.47;5027924;28;20552;-63
2022/03/02 09:32:04;;;;;;;26.20;16.13;;;;;;;6.42;42.75;95345.19;5028138;28;20501;-61
2022/03/02 09:34:30;;;;;;;21.63;14.40;;;;;;;5.84;44.71;95385.91;5027529;28;20036;-61
2022/03/02 09:36:59;;;;;;;25.80;16.33;;;;;;;6.07;43.94;95351.75;5028144;28;20040;-61
2022/03/02 09:39:26;;;;;;;22.88;15.48;;;;;;;7.61;41.26;95339.16;5027864;28;20025;-63
2022/03/02 09:42:02;;;;;;;19.00;13.05;;;;;;;7.78;39.11;95344.38;5027580;28;20030;-64
2022/03/02 09:44:45;;;;;;;21.65;14.63;;;;;;;9.92;36.60;95330.13;5028570;28;20061;-60
2022/03/02 09:47:21;;;;;;;21.73;14.18;;;;;;;10.88;33.56;95356.50;5027887;28;20215;-64
2022/03/02 09:49:51;;;;;;;21.58;13.95;;;;;;;11.46;32.35;95357.34;5028088;28;20100;-61
2022/03/02 09:52:22;;;;;;;21.38;15.48;;;;;;;13.44;29.12;95326.50;5030308;28;20168;-63
2022/03/02 09:54:56;;;;;;;25.45;16.92;;;;;;;15.13;25.96;95326.38;5031588;28;20037;-63
2022/03/02 09:57:22;;;;;;;19.70;14.98;;;;;;;14.06;27.04;95333.38;5031626;28;20034;-67
2022/03/02 09:59:51;;;;;;;21.25;13.93;;;;;;;12.71;28.09;95325.34;5031102;28;20026;-61
2022/03/02 10:02:30;;;;;;;22.73;16.55;;;;;;;15.09;26.28;95330.19;5031110;28;20080;-63
2022/03/02 10:04:58;;;;;;;19.45;14.23;;;;;;;15.63;24.45;95324.25;5031750;28;20394;-60
2022/03/02 10:07:29;;;;;;;21.55;14.48;;;;;;;15.81;23.90;95306.41;5031456;28;20033;-61
2022/03/02 10:10:05;;;;;;;16.80;13.17;;;;;;;15.25;24.60;95315.06;5030888;28;20032;-61
2022/03/02 10:12:34;;;;;;;16.30;12.57;;;;;;;14.51;25.75;95324.00;5030712;28;20029;-60
2022/03/02 10:15:01;;;;;;;18.40;14.35;;;;;;;14.27;25.39;95292.09;5030300;28;20608;-60
2022/03/02 10:17:38;;;;;;;19.70;14.50;;;;;;;13.08;27.30;95328.06;5031289;28;20810;-59
2022/03/02 10:20:09;;;;;;;21.58;15.73;;;;;;;13.41;27.78;95312.84;5031144;28;20190;-61
2022/03/02 10:22:40;;;;;;;21.30;15.93;;;;;;;14.43;24.97;95312.53;5030584;28;20104;-67
2022/03/02 10:25:07;;;;;;;;;;;;;;;15.49;24.20;95306.31;5031149;28;20081;-58
2022/03/02 10:27:39;;;;;;;20.35;15.05;;;;;;;15.40;24.42;95298.28;5030885;28;19912;-66
2022/03/02 10:30:09;;;;;;;20.65;15.02;;;;;;;15.97;23.42;95301.66;5030617;28;20128;-61
2022/03/02 10:32:36;;;;;;;18.70;13.88;;;;;;;15.05;23.11;95200.56;5030551;28;20037;-61
2022/03/02 10:35:10;;;;;;;19.02;13.57;;;;;;;13.91;24.53;95296.41;5030634;28;20037;-65
2022/03/02 10:37:38;;;;;;;21.92;14.57;;;;;;;14.61;24.61;95212.59;5030738;28;20087;-62
2022/03/02 10:40:09;;;;;;;15.50;13.23;;;;;;;14.89;24.58;95286.59;5030472;28;20022;-60
2022/03/02 10:43:04;;;;;;;15.50;12.65;;;;;;;15.37;23.68;95282.13;5030337;28;20051;-60
2022/03/02 10:45:44;;;;;;;16.45;12.73;;;;;;;15.40;23.09;95276.69;5029829;28;20148;-59
2022/03/02 10:48:27;;;;;;;18.00;13.05;;;;;;;15.39;23.61;95272.41;5028149;28;20037;-62
2022/03/02 10:50:56;;;;;;;19.50;14.55;;;;;;;15.75;23.30;95267.88;5029987;28;20021;-59
2022/03/02 10:53:26;;;;;;;19.05;13.63;;;;;;;16.13;22.75;95254.44;5030238;28;20048;-59
2022/03/02 10:55:57;;;;;;;18.42;14.30;;;;;;;16.24;22.31;95243.13;5030241;28;20065;-60
2022/03/02 10:58:26;;;;;;;15.57;12.98;;;;;;;14.13;23.83;95254.19;5029599;28;20541;-60
2022/03/02 11:00:52;;;;;;;18.70;14.52;;;;;;;13.71;25.08;95248.59;5029915;28;20022;-58
2022/03/02 11:03:19;;;;;;;15.75;13.50;;;;;;;14.20;24.70;95224.28;5029538;28;20026;-60
2022/03/02 11:05:45;;;;;;;16.65;13.80;;;;;;;15.13;23.89;95238.09;5029822;28;20030;-57
2022/03/02 11:08:10;;;;;;;18.95;15.77;;;;;;;14.98;24.42;95201.97;5030243;28;20045;-61
2022/03/02 11:10:40;;;;;;;15.75;11.27;;;;;;;12.30;26.08;95214.19;5029501;28;20431;-60
2022/03/02 11:13:15;;;;;;;15.30;12.02;;;;;;;10.25;29.06;95197.72;5029836;28;20044;-60
2022/03/02 11:15:51;;;;;;;17.05;12.98;;;;;;;11.90;27.27;95232.31;5029886;28;20159;-60
2022/03/02 11:18:33;;;;;;;18.40;13.20;;;;;;;10.79;29.19;95233.19;5029856;28;20033;-61
2022/03/02 11:21:02;;;;;;;19.10;13.35;;;;;;;11.73;27.98;95228.22;5030120;28;20026;-61
2022/03/02 11:23:33;;;;;;;15.38;12.52;;;;;;;11.67;27.77;95222.63;5029605;28;20025;-62